createdAt,value
2018-09-20T00:03:26.606Z,14.70
2018-09-20T00:08:29.913Z,14.50
2018-09-20T00:13:33.197Z,14.50
2018-09-20T00:18:36.512Z,14.80
2018-09-20T00:23:39.817Z,14.50
2018-09-20T00:28:43.108Z,14.30
2018-09-20T00:33:46.461Z,14.30
2018-09-20T00:38:49.941Z,14.20
2018-09-20T00:43:53.664Z,14.30
2018-09-20T00:48:56.970Z,14.30
2018-09-20T00:54:00.289Z,14.20
2018-09-20T00:59:03.703Z,14.20
2018-09-20T01:09:11.084Z,14.10
2018-09-20T01:14:14.365Z,14.10
2018-09-20T01:19:17.758Z,14.20
2018-09-20T01:24:21.085Z,14.20
2018-09-20T01:29:24.413Z,14.20
2018-09-20T01:34:27.702Z,14.00
2018-09-20T01:39:31.017Z,14.00
2018-09-20T01:44:34.381Z,14.00
2018-09-20T01:49:37.666Z,13.90
2018-09-20T01:54:41.074Z,13.70
2018-09-20T01:59:44.385Z,13.70
2018-09-20T02:04:47.707Z,13.90
2018-09-20T02:09:50.994Z,13.80
2018-09-20T02:14:54.425Z,13.90
2018-09-20T02:19:57.741Z,13.90
2018-09-20T02:25:01.050Z,13.80
2018-09-20T02:30:06.946Z,13.80
2018-09-20T02:35:10.311Z,13.70
2018-09-20T02:40:13.609Z,13.60
2018-09-20T02:45:16.919Z,13.50
2018-09-20T02:50:20.282Z,13.50
2018-09-20T03:00:26.671Z,13.50
2018-09-20T03:05:30.340Z,13.50
2018-09-20T03:10:33.639Z,13.30
2018-09-20T03:15:36.993Z,13.20
2018-09-20T03:20:40.348Z,13.10
2018-09-20T03:25:43.793Z,13.30
2018-09-20T03:30:47.203Z,13.20
2018-09-20T03:35:50.376Z,13.10
2018-09-20T03:40:53.833Z,13.00
2018-09-20T03:45:57.133Z,13.00
2018-09-20T03:51:00.436Z,13.10
2018-09-20T03:56:03.738Z,13.00
2018-09-20T04:01:07.037Z,12.90
2018-09-20T04:06:10.342Z,12.90
2018-09-20T04:11:13.648Z,12.80
2018-09-20T04:16:17.149Z,12.90
2018-09-20T04:21:24.762Z,12.90
2018-09-20T04:26:28.669Z,13.00
2018-09-20T04:31:32.350Z,13.20
2018-09-20T04:36:35.673Z,13.10
2018-09-20T04:41:38.979Z,13.10
2018-09-20T04:46:42.282Z,13.20
2018-09-20T04:51:45.629Z,13.00
2018-09-20T04:56:48.934Z,13.10
2018-09-20T05:01:52.221Z,13.00
2018-09-20T05:06:55.543Z,12.90
2018-09-20T05:11:58.886Z,13.00
2018-09-20T05:17:02.243Z,12.90
2018-09-20T05:22:05.573Z,12.90
2018-09-20T05:27:08.883Z,12.90
2018-09-20T05:32:12.200Z,12.90
2018-09-20T05:37:15.548Z,13.00
2018-09-20T05:42:18.837Z,13.10
2018-09-20T05:47:22.257Z,13.20
2018-09-20T05:52:25.620Z,13.20
2018-09-20T05:57:28.922Z,13.30
2018-09-20T06:02:32.412Z,13.40
2018-09-20T06:07:35.841Z,13.50
2018-09-20T06:12:39.149Z,13.70
2018-09-20T06:17:43.582Z,13.80
2018-09-20T06:22:46.893Z,13.90
2018-09-20T06:27:50.276Z,14.10
2018-09-20T06:32:53.633Z,14.30
2018-09-20T06:37:57.111Z,14.40
2018-09-20T06:43:00.572Z,14.50
2018-09-20T06:48:03.865Z,14.60
2018-09-20T06:53:07.492Z,14.70
2018-09-20T06:58:10.780Z,14.80
2018-09-20T07:03:14.240Z,15.00
2018-09-20T07:08:17.553Z,15.10
2018-09-20T07:13:20.941Z,15.30
2018-09-20T07:18:24.356Z,15.60
2018-09-20T07:23:27.845Z,15.60
2018-09-20T07:28:31.211Z,15.70
2018-09-20T07:33:34.513Z,15.90
2018-09-20T07:38:37.802Z,16.20
2018-09-20T07:43:41.289Z,16.40
2018-09-20T07:48:44.599Z,16.50
2018-09-20T07:53:48.087Z,16.60
2018-09-20T07:58:51.600Z,16.60
2018-09-20T08:03:55.036Z,17.00
2018-09-20T08:08:58.423Z,17.20
2018-09-20T08:14:01.904Z,17.30
2018-09-20T08:19:05.234Z,17.50
2018-09-20T08:24:08.534Z,17.80
2018-09-20T08:29:11.934Z,18.10
2018-09-20T08:34:15.466Z,18.40
2018-09-20T08:39:18.940Z,18.50
2018-09-20T08:44:22.314Z,18.70
2018-09-20T08:54:30.956Z,19.20
2018-09-20T08:59:34.488Z,19.50
2018-09-20T09:04:38.092Z,20.00
2018-09-20T09:09:41.460Z,20.20
2018-09-20T09:14:44.880Z,20.30
2018-09-20T09:24:51.407Z,20.80
2018-09-20T09:29:54.756Z,21.00
2018-09-20T09:34:58.052Z,21.40
2018-09-20T09:40:01.588Z,21.80
2018-09-20T09:45:05.033Z,21.90
2018-09-20T09:50:08.383Z,22.00
2018-09-20T09:55:11.701Z,22.50
2018-09-20T10:00:15.041Z,22.80
2018-09-20T10:05:18.328Z,22.80
2018-09-20T10:10:21.725Z,23.10
2018-09-20T10:15:25.150Z,23.50
2018-09-20T10:20:28.454Z,23.40
2018-09-20T10:25:31.762Z,23.70
2018-09-20T10:30:36.121Z,23.90
2018-09-20T10:35:39.418Z,24.00
2018-09-20T10:40:42.749Z,24.40
2018-09-20T10:45:46.047Z,24.50
2018-09-20T10:50:49.344Z,24.60
2018-09-20T10:55:52.776Z,24.90
2018-09-20T11:00:56.126Z,24.80
2018-09-20T11:05:59.481Z,24.70
2018-09-20T11:11:02.992Z,25.00
2018-09-20T11:16:06.290Z,25.10
2018-09-20T11:21:09.592Z,25.20
2018-09-20T11:26:13.145Z,25.30
2018-09-20T11:31:16.521Z,25.40
2018-09-20T11:36:19.835Z,25.70
2018-09-20T11:41:23.313Z,25.90
2018-09-20T11:46:26.724Z,26.00
2018-09-20T11:51:30.077Z,25.80
2018-09-20T11:56:33.524Z,25.90
2018-09-20T12:01:36.844Z,26.00
2018-09-20T12:06:40.210Z,26.20
2018-09-20T12:11:43.662Z,25.90
2018-09-20T12:16:46.963Z,26.50
2018-09-20T12:21:50.261Z,26.30
2018-09-20T12:26:53.585Z,26.50
2018-09-20T12:31:57.092Z,26.60
2018-09-20T12:37:00.375Z,26.80
2018-09-20T12:42:03.683Z,26.80
2018-09-20T12:47:07.117Z,26.90
2018-09-20T12:52:10.397Z,26.90
2018-09-20T12:57:13.744Z,27.10
2018-09-20T13:02:17.159Z,26.70
2018-09-20T13:12:23.693Z,27.00
2018-09-20T13:17:27.016Z,27.10
2018-09-20T13:22:30.557Z,27.30
2018-09-20T13:27:33.872Z,27.50
2018-09-20T13:32:37.207Z,27.30
2018-09-20T13:37:40.624Z,27.50
2018-09-20T13:42:43.961Z,27.30
2018-09-20T13:47:47.437Z,27.80
2018-09-20T13:52:50.733Z,27.80
2018-09-20T13:57:54.351Z,27.90
2018-09-20T14:02:57.656Z,27.90
2018-09-20T14:08:00.989Z,27.60
2018-09-20T14:13:04.514Z,27.30
2018-09-20T14:18:08.085Z,27.10
2018-09-20T14:23:11.518Z,27.20
2018-09-20T14:28:14.857Z,27.60
2018-09-20T14:33:18.145Z,27.70
2018-09-20T14:38:21.440Z,27.70
2018-09-20T14:43:24.780Z,27.70
2018-09-20T14:48:28.085Z,27.70
2018-09-20T14:53:31.816Z,27.80
2018-09-20T14:58:35.979Z,27.70
2018-09-20T15:03:39.462Z,27.40
2018-09-20T15:08:42.742Z,27.70
2018-09-20T15:13:46.230Z,27.40
2018-09-20T15:18:49.536Z,27.50
2018-09-20T15:23:53.276Z,27.40
2018-09-20T15:28:56.829Z,27.20
2018-09-20T15:34:00.122Z,27.40
2018-09-20T15:39:05.213Z,27.40
2018-09-20T15:44:08.886Z,27.40
2018-09-20T15:49:12.277Z,26.90
2018-09-20T15:54:15.825Z,27.10
2018-09-20T15:59:19.105Z,27.10
2018-09-20T16:04:22.572Z,26.80
2018-09-20T16:09:25.969Z,26.70
2018-09-20T16:14:29.383Z,26.60
2018-09-20T16:19:32.701Z,26.40
2018-09-20T16:24:36.069Z,26.30
2018-09-20T16:29:47.457Z,26.20
2018-09-20T16:35:01.621Z,26.00
2018-09-20T16:40:05.157Z,25.80
2018-09-20T16:45:08.483Z,25.70
2018-09-20T16:50:11.772Z,25.60
2018-09-20T16:55:15.129Z,25.40
2018-09-20T17:05:21.763Z,25.20
2018-09-20T17:10:25.288Z,25.00
2018-09-20T17:15:28.914Z,24.90
2018-09-20T17:20:32.262Z,24.70
2018-09-20T17:25:35.634Z,24.60
2018-09-20T17:30:39.022Z,24.50
2018-09-20T17:35:42.837Z,24.30
2018-09-20T17:40:48.140Z,24.10
2018-09-20T17:45:52.225Z,23.80
2018-09-20T17:50:56.013Z,23.70
2018-09-20T17:56:00.421Z,23.50
2018-09-20T18:01:04.236Z,23.30
2018-09-20T18:06:07.650Z,23.20
2018-09-20T18:11:11.152Z,23.00
2018-09-20T18:16:14.609Z,22.90
2018-09-20T18:21:17.973Z,22.60
2018-09-20T18:26:21.413Z,22.50
2018-09-20T18:31:24.953Z,22.40
2018-09-20T18:36:29.577Z,22.20
2018-09-20T18:41:32.978Z,22.00
2018-09-20T18:46:36.587Z,21.90
2018-09-20T18:51:39.900Z,21.60
2018-09-20T18:56:43.540Z,21.60
2018-09-20T19:01:47.489Z,21.40
2018-09-20T19:06:50.829Z,21.40
2018-09-20T19:11:54.208Z,21.30
2018-09-20T19:16:58.530Z,21.20
2018-09-20T19:22:02.358Z,20.90
2018-09-20T19:27:05.920Z,20.90
2018-09-20T19:32:10.583Z,20.70
2018-09-20T19:37:13.903Z,20.60
2018-09-20T19:42:17.281Z,20.50
2018-09-20T19:47:20.567Z,20.40
2018-09-20T19:52:23.881Z,20.30
2018-09-20T19:57:27.550Z,20.10
2018-09-20T20:02:31.065Z,20.00
2018-09-20T20:12:37.556Z,19.90
2018-09-20T20:17:41.068Z,19.80
2018-09-20T20:22:44.477Z,19.70
2018-09-20T20:27:47.913Z,19.70
2018-09-20T20:32:51.477Z,19.60
2018-09-20T20:37:54.904Z,19.50
2018-09-20T20:43:01.071Z,19.40
2018-09-20T20:48:05.331Z,19.40
2018-09-20T20:53:09.011Z,19.30
2018-09-20T20:58:12.584Z,19.30
2018-09-20T21:03:15.880Z,19.30
2018-09-20T21:13:22.865Z,18.40
2018-09-20T21:18:26.200Z,18.20
2018-09-20T21:23:30.022Z,18.20
2018-09-20T21:28:33.627Z,18.10
2018-09-20T21:33:37.102Z,17.80
2018-09-20T21:38:40.673Z,17.60
2018-09-20T21:43:45.053Z,17.40
2018-09-20T21:48:48.333Z,17.30
2018-09-20T21:53:51.682Z,17.30
2018-09-20T21:58:55.109Z,17.20
2018-09-20T22:03:58.413Z,17.20
2018-09-20T22:09:01.919Z,17.40
2018-09-20T22:14:05.381Z,17.10
2018-09-20T22:19:08.881Z,16.80
2018-09-20T22:24:12.234Z,16.60
2018-09-20T22:29:15.533Z,16.60
2018-09-20T22:34:19.070Z,16.50
2018-09-20T22:39:22.410Z,16.50
2018-09-20T22:44:25.766Z,16.50
2018-09-20T22:49:29.268Z,16.50
2018-09-20T22:54:32.600Z,16.30
2018-09-20T22:59:35.981Z,16.20
2018-09-20T23:04:39.422Z,16.00
2018-09-20T23:09:42.836Z,16.00
2018-09-20T23:14:46.434Z,16.10
2018-09-20T23:19:49.883Z,15.90
2018-09-20T23:24:53.423Z,15.80
2018-09-20T23:29:56.787Z,15.70
2018-09-20T23:35:00.118Z,15.60
2018-09-20T23:40:03.811Z,15.50
2018-09-20T23:45:07.118Z,15.50
2018-09-20T23:50:10.869Z,15.40
2018-09-20T23:55:14.234Z,15.30
